Time;durP1;ratioP1;P1;durP2;ratioP2;P2;SDS_P1;SDS_P2;PMS_P1;PMS_P2;Temp;Humidity;BMP_temperature;BMP_pressure;BME280_temperature;BME280_humidity;BME280_pressure;Samples;Min_cycle;Max_cycle;Signal;HPM_P1;HPM_P2
2022/11/12 00:00:44;;;;;;;8.13;2.53;;;10.90;94.80;;;;;;5054050;28;20038;-74
2022/11/12 00:03:10;;;;;;;10.30;2.63;;;11.00;94.90;;;;;;5071720;28;20058;-73
2022/11/12 00:05:36;;;;;;;4.50;2.50;;;10.90;94.80;;;;;;5053445;28;20443;-72
2022/11/12 00:08:03;;;;;;;8.10;3.30;;;11.00;94.60;;;;;;5071500;28;20489;-75
2022/11/12 00:10:30;;;;;;;7.18;3.00;;;11.00;94.60;;;;;;5070418;28;20119;-74
2022/11/12 00:12:56;;;;;;;7.82;2.72;;;11.00;94.60;;;;;;5071633;28;20083;-74
2022/11/12 00:15:21;;;;;;;5.57;2.63;;;11.00;94.60;;;;;;5053884;28;20467;-73
2022/11/12 00:17:47;;;;;;;9.57;2.63;;;11.10;94.40;;;;;;5072061;28;20029;-74
2022/11/12 00:20:13;;;;;;;3.88;2.55;;;11.10;94.50;;;;;;5071392;28;20025;-74
2022/11/12 00:22:38;;;;;;;7.57;2.65;;;11.00;94.50;;;;;;5071315;28;20028;-73
2022/11/12 00:25:05;;;;;;;72.18;34.28;;;11.00;94.50;;;;;;5071668;28;20037;-74
2022/11/12 00:27:34;;;;;;;155.95;77.07;;;11.00;94.50;;;;;;5071312;28;20028;-73
2022/11/12 00:30:00;;;;;;;15.65;7.30;;;11.00;94.60;;;;;;5070918;28;20024;-73
2022/11/12 00:32:26;;;;;;;7.65;3.42;;;11.10;94.60;;;;;;5071479;28;20044;-73
2022/11/12 00:34:52;;;;;;;7.50;2.72;;;11.00;94.60;;;;;;5071223;28;20044;-72
2022/11/12 00:37:19;;;;;;;8.00;3.03;;;11.00;94.70;;;;;;5070985;28;20032;-73
2022/11/12 00:39:45;;;;;;;6.95;3.00;;;10.90;94.80;;;;;;5053329;28;20105;-73
2022/11/12 00:42:10;;;;;;;5.78;2.47;;;10.80;94.90;;;;;;5070562;28;20057;-73
2022/11/12 00:44:36;;;;;;;6.03;2.70;;;10.70;95.00;;;;;;5071462;28;20470;-72
2022/11/12 00:47:02;;;;;;;12.02;4.10;;;10.70;95.00;;;;;;5069769;28;20493;-72
2022/11/12 00:49:28;;;;;;;5.40;2.38;;;10.70;95.00;;;;;;5071035;28;20044;-73
2022/11/12 00:51:53;;;;;;;4.10;2.33;;;10.60;95.00;;;;;;5070791;28;20036;-72
2022/11/12 00:54:19;;;;;;;6.47;2.78;;;10.60;95.20;;;;;;5070732;28;20751;-75
2022/11/12 00:56:46;;;;;;;7.03;3.20;;;10.60;95.30;;;;;;5071500;28;20162;-73
2022/11/12 00:59:12;;;;;;;7.35;2.85;;;10.50;95.20;;;;;;5070931;28;20055;-72
2022/11/12 01:01:38;;;;;;;5.57;2.53;;;10.50;95.20;;;;;;5070771;28;20090;-73
2022/11/12 01:04:04;;;;;;;4.50;2.78;;;10.60;95.10;;;;;;5070924;28;20038;-73
2022/11/12 01:06:30;;;;;;;6.03;2.33;;;10.60;95.00;;;;;;5071380;28;20374;-72
2022/11/12 01:08:56;;;;;;;6.53;2.88;;;10.60;94.80;;;;;;5071487;28;20035;-74
2022/11/12 01:11:25;;;;;;;6.28;3.13;;;10.60;94.90;;;;;;5070773;28;20040;-74
2022/11/12 01:14:06;;;;;;;6.85;2.70;;;10.70;94.70;;;;;;5053184;28;20037;-73
2022/11/12 01:16:38;;;;;;;7.18;2.53;;;10.70;94.70;;;;;;5070241;28;20056;-74
2022/11/12 01:19:06;;;;;;;6.22;2.72;;;10.70;94.70;;;;;;5070510;28;20055;-73
2022/11/12 01:21:36;;;;;;;7.85;2.05;;;10.70;95.00;;;;;;5070571;28;20056;-73
2022/11/12 01:24:01;;;;;;;7.45;2.83;;;10.70;94.90;;;;;;5070489;28;20032;-73
2022/11/12 01:26:27;;;;;;;5.43;2.42;;;10.60;94.60;;;;;;5071492;28;20025;-73
2022/11/12 01:28:54;;;;;;;4.60;2.70;;;10.60;94.90;;;;;;5071159;28;20113;-72
2022/11/12 01:31:26;;;;;;;4.47;2.40;;;10.70;94.90;;;;;;5070683;28;20498;-73
2022/11/12 01:33:54;;;;;;;6.55;2.58;;;10.70;94.90;;;;;;5070723;28;20051;-73
2022/11/12 01:36:20;;;;;;;5.28;2.78;;;10.70;94.80;;;;;;5058588;28;20820;-72
2022/11/12 01:38:48;;;;;;;6.60;2.80;;;10.70;94.90;;;;;;5071046;28;20437;-73
2022/11/12 01:41:17;;;;;;;4.90;2.95;;;10.70;94.80;;;;;;5070626;28;20078;-72
2022/11/12 01:43:43;;;;;;;4.55;2.88;;;10.60;94.70;;;;;;5055572;28;20033;-73
2022/11/12 01:46:28;;;;;;;5.85;2.55;;;10.70;94.70;;;;;;5072938;28;20079;-73
2022/11/12 01:48:59;;;;;;;48.08;23.55;;;10.70;94.80;;;;;;5072341;28;20458;-74
2022/11/12 01:51:31;;;;;;;80.78;40.30;;;10.60;94.90;;;;;;5072402;28;20052;-72
2022/11/12 01:54:00;;;;;;;22.48;7.82;;;10.60;95.00;;;;;;5071438;28;20032;-73
2022/11/12 01:56:29;;;;;;;6.45;3.25;;;10.60;95.00;;;;;;5070028;28;20101;-73
2022/11/12 01:59:00;;;;;;;7.68;2.67;;;10.60;95.00;;;;;;5069716;28;20033;-73
2022/11/12 02:01:26;;;;;;;8.25;2.92;;;10.60;95.10;;;;;;5070113;28;20048;-74
2022/11/12 02:03:52;;;;;;;7.45;3.05;;;10.60;95.30;;;;;;5070012;28;20052;-73
2022/11/12 02:06:19;;;;;;;5.43;2.20;;;10.50;95.00;;;;;;5069844;28;20021;-73
2022/11/12 02:08:45;;;;;;;5.78;3.25;;;10.60;95.10;;;;;;5070414;28;20092;-73
2022/11/12 02:11:16;;;;;;;10.05;3.00;;;10.50;95.00;;;;;;5069871;28;20044;-73
2022/11/12 02:14:02;;;;;;;5.75;2.75;;;10.50;95.10;;;;;;5070019;28;20055;-73
2022/11/12 02:16:39;;;;;;;6.03;2.78;;;10.50;95.10;;;;;;5069847;28;20029;-74
2022/11/12 02:19:09;;;;;;;6.03;2.83;;;10.50;95.00;;;;;;5069859;28;20036;-73
2022/11/12 02:21:35;;;;;;;7.97;2.50;;;10.50;95.00;;;;;;5053248;28;20033;-73
2022/11/12 02:24:23;;;;;;;6.22;2.25;;;10.60;94.90;;;;;;5069590;28;20051;-74
2022/11/12 02:26:52;;;;;;;5.93;2.95;;;10.60;94.90;;;;;;5056983;28;20343;-74
2022/11/12 02:29:18;;;;;;;7.43;3.58;;;10.60;95.00;;;;;;5055490;28;20036;-73
2022/11/12 02:31:44;;;;;;;5.03;2.30;;;10.60;95.00;;;;;;5055151;28;20043;-73
2022/11/12 02:34:10;;;;;;;6.45;2.58;;;10.60;94.80;;;;;;5073301;28;20343;-73
2022/11/12 02:36:35;;;;;;;4.82;2.42;;;10.60;95.00;;;;;;5075377;28;20454;-73
2022/11/12 02:39:01;;;;;;;5.95;2.42;;;10.60;95.10;;;;;;5093954;28;20301;-74
2022/11/12 02:41:27;;;;;;;5.13;2.45;;;10.60;95.10;;;;;;5096977;28;20065;-72
2022/11/12 02:43:52;;;;;;;5.80;2.67;;;10.60;95.10;;;;;;5098538;28;20469;-73
2022/11/12 02:46:18;;;;;;;8.60;2.50;;;10.60;94.90;;;;;;5097034;28;20339;-73
2022/11/12 02:48:44;;;;;;;6.50;2.67;;;10.50;95.00;;;;;;5076699;28;20029;-73
2022/11/12 02:51:09;;;;;;;4.93;2.33;;;10.50;95.00;;;;;;5093371;28;20024;-74
2022/11/12 02:53:35;;;;;;;3.50;2.10;;;10.50;95.30;;;;;;5075978;28;20396;-73
2022/11/12 02:56:01;;;;;;;6.75;2.78;;;10.40;95.40;;;;;;5075193;28;20119;-73
2022/11/12 02:58:28;;;;;;;8.40;2.30;;;10.40;95.50;;;;;;5093258;28;20465;-73
2022/11/12 03:00:55;;;;;;;5.80;2.90;;;10.40;95.40;;;;;;5092863;28;20475;-74
2022/11/12 03:03:21;;;;;;;8.38;2.50;;;10.40;95.60;;;;;;5093037;28;20032;-74
2022/11/12 03:05:58;;;;;;;3.95;2.30;;;10.40;95.50;;;;;;5093538;28;20480;-74
2022/11/12 03:08:24;;;;;;;3.53;2.10;;;10.30;95.60;;;;;;5092866;28;20047;-74
2022/11/12 03:10:50;;;;;;;6.15;2.47;;;10.30;95.60;;;;;;5093065;28;20093;-74
2022/11/12 03:13:16;;;;;;;5.97;2.22;;;10.20;95.70;;;;;;5093042;28;20032;-74
2022/11/12 03:15:42;;;;;;;6.80;2.50;;;10.20;95.70;;;;;;5092805;28;20050;-73
2022/11/12 03:18:08;;;;;;;4.13;2.60;;;10.20;95.80;;;;;;5092752;28;20028;-74
2022/11/12 03:20:33;;;;;;;10.98;3.03;;;10.20;95.70;;;;;;5075269;28;20012;-73
2022/11/12 03:23:07;;;;;;;4.60;2.35;;;10.20;95.90;;;;;;5092863;28;20413;-74
2022/11/12 03:25:34;;;;;;;5.65;2.33;;;10.20;95.80;;;;;;5092421;28;20036;-73
2022/11/12 03:28:04;;;;;;;6.60;2.60;;;10.20;95.90;;;;;;5092856;28;20059;-74
2022/11/12 03:30:32;;;;;;;6.03;2.70;;;10.20;95.80;;;;;;5074824;28;20485;-74
2022/11/12 03:32:58;;;;;;;5.57;2.90;;;10.20;95.70;;;;;;5092887;28;20485;-73
2022/11/12 03:35:25;;;;;;;5.47;2.30;;;10.20;95.90;;;;;;5074687;28;20052;-72
2022/11/12 03:37:51;;;;;;;5.10;2.40;;;10.20;96.00;;;;;;5092606;28;20068;-73
2022/11/12 03:40:17;;;;;;;4.28;2.45;;;10.10;96.00;;;;;;5092118;28;20056;-71
2022/11/12 03:42:48;;;;;;;6.07;2.72;;;10.10;96.10;;;;;;5092026;28;20434;-72
2022/11/12 03:45:14;;;;;;;5.68;2.60;;;10.00;96.20;;;;;;5074393;28;20430;-72
2022/11/12 03:47:45;;;;;;;4.20;2.35;;;10.00;96.20;;;;;;5074631;28;20024;-72
2022/11/12 03:50:12;;;;;;;8.15;2.83;;;10.10;96.20;;;;;;5092128;28;20028;-73
2022/11/12 03:52:38;;;;;;;5.95;2.35;;;10.10;96.20;;;;;;5074281;28;20040;-72
2022/11/12 03:55:05;;;;;;;5.72;2.38;;;10.10;96.10;;;;;;5092354;28;20024;-71
2022/11/12 03:57:30;;;;;;;3.72;2.20;;;10.00;96.10;;;;;;5073989;28;20466;-72
2022/11/12 03:59:56;;;;;;;4.60;2.47;;;10.00;96.20;;;;;;5092327;28;20354;-72
2022/11/12 04:02:24;;;;;;;3.88;2.38;;;10.00;96.20;;;;;;5091738;28;20122;-72
2022/11/12 04:10:18;;;;;;;6.03;2.45;;;10.10;96.10;;;;;;5091799;28;20047;-73
2022/11/12 04:15:28;;;;;;;4.32;2.17;;;10.00;96.20;;;;;;5091548;28;20119;-72
2022/11/12 04:23:30;;;;;;;5.07;2.20;;;10.10;96.20;;;;;;5067724;28;20339;-73
2022/11/12 04:30:14;;;;;;;6.53;2.47;;;10.00;96.30;;;;;;5091474;28;20173;-74
2022/11/12 04:31:26;;;;;;;6.05;2.50;;;10.00;96.30;;;;;;5091300;28;20093;-74
2022/11/12 04:33:51;;;;;;;4.70;2.67;;;10.00;96.50;;;;;;5091470;28;20055;-73
2022/11/12 04:36:17;;;;;;;5.50;2.80;;;9.90;97.00;;;;;;5073757;28;20032;-74
2022/11/12 04:38:43;;;;;;;7.75;2.85;;;9.90;96.90;;;;;;5091589;28;20039;-75
2022/11/12 04:46:37;;;;;;;7.32;2.75;;;9.90;97.00;;;;;;5091228;28;20082;-73
2022/11/12 04:49:02;;;;;;;3.78;2.60;;;9.90;97.00;;;;;;5090888;28;20432;-75
2022/11/12 04:54:12;;;;;;;4.57;2.75;;;9.90;97.10;;;;;;5091158;28;20051;-73
2022/11/12 04:56:37;;;;;;;6.93;2.90;;;9.90;96.90;;;;;;5091398;28;20310;-73
2022/11/12 04:59:03;;;;;;;4.40;2.30;;;9.90;97.00;;;;;;5090966;28;20114;-73
2022/11/12 05:01:29;;;;;;;4.95;2.60;;;9.90;97.10;;;;;;5091280;28;20111;-72
2022/11/12 05:03:54;;;;;;;6.40;3.00;;;9.90;97.00;;;;;;5079043;28;20050;-72
2022/11/12 05:09:04;;;;;;;5.10;2.38;;;9.90;97.30;;;;;;5097836;28;20040;-72
2022/11/12 05:11:30;;;;;;;5.88;3.10;;;9.70;97.20;;;;;;5099560;28;20024;-72
2022/11/12 05:13:56;;;;;;;5.75;2.83;;;9.70;97.20;;;;;;5076536;28;20032;-73
2022/11/12 05:16:21;;;;;;;5.97;2.97;;;9.70;97.30;;;;;;5096316;28;20031;-72
2022/11/12 05:18:47;;;;;;;8.13;2.72;;;9.70;97.30;;;;;;5091577;28;20064;-72
2022/11/12 05:23:57;;;;;;;8.10;2.72;;;9.70;97.30;;;;;;5091174;28;20039;-72
2022/11/12 05:26:23;;;;;;;8.30;2.75;;;9.60;97.40;;;;;;5072745;28;20028;-73
2022/11/12 05:28:48;;;;;;;6.80;3.20;;;9.60;97.40;;;;;;5090857;28;20053;-72
2022/11/12 05:31:14;;;;;;;6.10;2.60;;;9.60;97.40;;;;;;5090759;28;20095;-73
2022/11/12 05:33:39;;;;;;;5.20;2.88;;;9.50;97.60;;;;;;5090538;28;20038;-72
2022/11/12 05:36:05;;;;;;;6.20;2.63;;;9.50;97.50;;;;;;5091213;28;20342;-72
2022/11/12 05:38:31;;;;;;;4.32;2.72;;;9.50;97.60;;;;;;5092627;28;20035;-72
2022/11/12 05:40:57;;;;;;;6.03;3.10;;;9.50;97.50;;;;;;5092531;28;20492;-73
2022/11/12 05:43:22;;;;;;;9.07;3.20;;;9.50;97.50;;;;;;5070643;28;20048;-74
2022/11/12 05:45:48;;;;;;;4.38;2.60;;;9.50;97.60;;;;;;5075252;28;20116;-73
2022/11/12 05:48:14;;;;;;;6.10;2.90;;;9.50;97.40;;;;;;5077870;28;20028;-73
2022/11/12 05:50:39;;;;;;;8.10;3.08;;;9.50;97.50;;;;;;5076219;28;20094;-71
2022/11/12 05:53:05;;;;;;;7.20;2.90;;;9.50;97.40;;;;;;5070819;28;20089;-71
2022/11/12 05:55:30;;;;;;;6.40;3.25;;;9.50;97.50;;;;;;5070028;28;20056;-71
2022/11/12 05:57:56;;;;;;;6.25;2.88;;;9.50;97.50;;;;;;5070030;28;20048;-71
2022/11/12 06:00:22;;;;;;;5.72;2.70;;;9.50;97.50;;;;;;5068837;28;20370;-71
2022/11/12 06:02:48;;;;;;;7.38;3.53;;;9.50;97.60;;;;;;5070579;28;20021;-71
2022/11/12 06:05:13;;;;;;;8.15;3.05;;;9.50;97.70;;;;;;5072970;28;20032;-72
2022/11/12 06:07:39;;;;;;;6.18;3.08;;;9.50;97.70;;;;;;5072890;28;20504;-72
2022/11/12 06:10:05;;;;;;;6.53;2.40;;;9.50;97.50;;;;;;5072984;28;20465;-73
2022/11/12 06:12:31;;;;;;;5.05;2.58;;;9.50;97.50;;;;;;5073619;28;20032;-73
2022/11/12 06:14:57;;;;;;;7.15;2.88;;;9.60;97.50;;;;;;5074802;28;20032;-72
2022/11/12 06:17:22;;;;;;;9.50;3.03;;;9.50;97.60;;;;;;5073649;28;20484;-70
2022/11/12 06:19:48;;;;;;;6.50;2.83;;;9.50;97.50;;;;;;5072647;28;20040;-73
2022/11/12 06:22:14;;;;;;;7.03;2.85;;;9.50;97.70;;;;;;5073706;28;20116;-73
2022/11/12 06:24:39;;;;;;;5.63;3.03;;;9.50;97.70;;;;;;5074603;28;20068;-75
2022/11/12 06:27:05;;;;;;;5.30;2.72;;;9.40;97.70;;;;;;5073394;28;20131;-72
2022/11/12 06:29:31;;;;;;;7.45;2.95;;;9.50;97.80;;;;;;5073965;28;20209;-72
2022/11/12 06:31:56;;;;;;;6.78;2.97;;;9.40;97.70;;;;;;5073523;28;20072;-72
2022/11/12 06:34:22;;;;;;;17.40;8.55;;;9.40;97.70;;;;;;5073356;28;20541;-73
2022/11/12 06:36:48;;;;;;;15.52;6.72;;;9.40;97.80;;;;;;5073451;28;20055;-73
2022/11/12 06:39:13;;;;;;;14.75;7.18;;;9.40;97.90;;;;;;5073314;28;20039;-71
2022/11/12 06:41:39;;;;;;;10.90;6.15;;;9.40;98.10;;;;;;5078877;28;20052;-71
2022/11/12 06:44:05;;;;;;;9.57;3.72;;;9.40;97.80;;;;;;5094053;28;20081;-72
2022/11/12 06:46:31;;;;;;;4.85;2.75;;;9.40;97.90;;;;;;5095141;28;20024;-72
2022/11/12 06:48:56;;;;;;;6.78;2.90;;;9.40;98.00;;;;;;5095582;28;20040;-73
2022/11/12 06:51:22;;;;;;;5.95;2.95;;;9.40;97.90;;;;;;5077712;28;20032;-73
2022/11/12 06:53:48;;;;;;;10.55;3.22;;;9.40;97.80;;;;;;5100352;28;20202;-73
2022/11/12 06:56:14;;;;;;;4.53;2.90;;;9.40;97.90;;;;;;5085553;28;20024;-72
2022/11/12 06:58:41;;;;;;;5.65;3.00;;;9.50;97.90;;;;;;5082102;28;20465;-72
2022/11/12 07:01:12;;;;;;;6.45;3.05;;;9.40;97.80;;;;;;5093974;28;20033;-73
2022/11/12 07:03:39;;;;;;;6.80;3.35;;;9.50;98.00;;;;;;5093104;28;20095;-72
2022/11/12 07:06:07;;;;;;;8.48;2.83;;;9.50;98.00;;;;;;5093196;28;20095;-71
2022/11/12 07:08:33;;;;;;;6.13;3.20;;;9.50;97.80;;;;;;5093451;28;20028;-72
2022/11/12 07:10:59;;;;;;;7.82;3.10;;;9.60;97.90;;;;;;5093030;28;20038;-71
2022/11/12 07:13:25;;;;;;;6.90;2.90;;;9.60;97.90;;;;;;5074350;28;20042;-70
2022/11/12 07:15:51;;;;;;;6.85;3.50;;;9.60;97.90;;;;;;5092946;28;20128;-73
2022/11/12 07:18:16;;;;;;;15.25;5.97;;;9.50;97.90;;;;;;5074848;28;20737;-72
2022/11/12 07:20:42;;;;;;;9.23;5.13;;;9.50;98.00;;;;;;5093289;28;20024;-71
2022/11/12 07:23:07;;;;;;;6.63;3.35;;;9.60;98.00;;;;;;5092781;28;20024;-71
2022/11/12 07:25:33;;;;;;;7.95;3.00;;;9.60;98.00;;;;;;5092436;28;20024;-73
2022/11/12 07:27:58;;;;;;;6.85;3.05;;;9.60;98.00;;;;;;5074716;28;20504;-73
2022/11/12 07:30:24;;;;;;;5.25;3.30;;;9.60;98.00;;;;;;5074573;28;20024;-73
2022/11/12 07:32:50;;;;;;;8.02;3.60;;;9.70;97.90;;;;;;5075033;28;20395;-72
2022/11/12 07:35:16;;;;;;;7.75;3.33;;;9.70;97.90;;;;;;5092320;28;20031;-72
2022/11/12 07:37:42;;;;;;;4.95;2.95;;;9.80;97.90;;;;;;5092374;28;20032;-73
2022/11/12 07:40:08;;;;;;;5.20;2.88;;;9.80;98.00;;;;;;5092266;28;20135;-74
2022/11/12 07:42:34;;;;;;;6.53;2.80;;;9.80;97.90;;;;;;5091876;28;20052;-73
2022/11/12 07:45:00;;;;;;;7.68;3.50;;;9.90;97.90;;;;;;5092466;28;20030;-71
2022/11/12 07:47:26;;;;;;;10.27;5.35;;;10.00;97.40;;;;;;5092245;28;20036;-73
2022/11/12 07:49:51;;;;;;;9.80;4.60;;;10.00;97.30;;;;;;5092094;28;20035;-70
2022/11/12 07:52:17;;;;;;;8.30;3.13;;;10.10;97.30;;;;;;5091998;28;20047;-72
2022/11/12 07:54:43;;;;;;;6.28;3.08;;;10.20;97.30;;;;;;5091932;28;20047;-71
2022/11/12 07:57:08;;;;;;;5.43;3.25;;;10.30;97.20;;;;;;5091815;28;20027;-71
2022/11/12 07:59:34;;;;;;;7.43;3.10;;;10.40;97.20;;;;;;5092599;28;20071;-72
2022/11/12 08:02:00;;;;;;;4.93;2.95;;;10.40;97.20;;;;;;5092100;28;20040;-73
2022/11/12 08:04:25;;;;;;;5.82;3.20;;;10.50;97.20;;;;;;5091883;28;20036;-71
2022/11/12 08:06:51;;;;;;;6.60;3.05;;;10.50;97.20;;;;;;5091842;28;20104;-71
2022/11/12 08:09:17;;;;;;;4.68;3.33;;;10.60;97.20;;;;;;5091722;28;20028;-72
2022/11/12 08:11:43;;;;;;;6.55;3.25;;;10.80;97.10;;;;;;5092096;28;20117;-72
2022/11/12 08:14:08;;;;;;;8.55;4.20;;;10.90;97.10;;;;;;5073917;28;20035;-72
2022/11/12 08:16:34;;;;;;;10.07;3.38;;;11.10;97.20;;;;;;5091668;28;20036;-74
2022/11/12 08:19:00;;;;;;;7.07;3.45;;;11.30;97.10;;;;;;5091939;28;20031;-74
2022/11/12 08:21:26;;;;;;;4.75;2.90;;;11.40;96.80;;;;;;5091559;28;20115;-74
2022/11/12 08:23:53;;;;;;;8.55;3.03;;;11.50;96.60;;;;;;5092298;28;20055;-74
2022/11/12 08:26:19;;;;;;;9.15;3.00;;;11.60;96.50;;;;;;5072686;28;20069;-74
2022/11/12 08:28:45;;;;;;;6.57;3.08;;;11.70;96.30;;;;;;5091407;28;20062;-71
2022/11/12 08:31:14;;;;;;;8.90;3.30;;;11.80;96.20;;;;;;5091366;28;20032;-75
2022/11/12 08:33:40;;;;;;;6.25;2.70;;;11.90;96.10;;;;;;5091238;28;20032;-75
2022/11/12 08:36:08;;;;;;;4.93;2.38;;;12.00;95.90;;;;;;5091447;28;20028;-74
2022/11/12 08:38:34;;;;;;;5.32;3.40;;;12.10;95.80;;;;;;5091546;28;20470;-75
2022/11/12 08:41:01;;;;;;;6.57;3.13;;;12.30;95.80;;;;;;5091138;28;20063;-75
2022/11/12 08:43:27;;;;;;;5.15;2.90;;;12.40;95.70;;;;;;5090925;28;20048;-75
2022/11/12 08:45:53;;;;;;;6.22;2.83;;;12.50;95.60;;;;;;5072850;28;20435;-77
2022/11/12 08:48:19;;;;;;;5.00;2.67;;;12.50;95.50;;;;;;5073094;28;20119;-77
2022/11/12 08:50:44;;;;;;;5.93;2.88;;;12.60;95.50;;;;;;5091935;28;20444;-76
2022/11/12 08:53:12;;;;;;;6.60;2.50;;;12.70;95.30;;;;;;5073274;28;20054;-77
2022/11/12 08:55:38;;;;;;;7.18;2.95;;;12.80;95.00;;;;;;5091054;28;20111;-78
2022/11/12 08:58:05;;;;;;;6.68;3.20;;;12.90;95.00;;;;;;5090791;28;20108;-76
2022/11/12 09:00:37;;;;;;;9.45;3.33;;;13.00;95.00;;;;;;5090700;28;20410;-75
2022/11/12 09:03:05;;;;;;;5.13;2.58;;;13.00;94.80;;;;;;5090730;28;20470;-77
2022/11/12 09:05:31;;;;;;;4.55;2.42;;;13.10;94.70;;;;;;5091389;28;20377;-76
2022/11/12 09:08:05;;;;;;;5.63;2.65;;;13.10;94.50;;;;;;5091268;28;20024;-78
2022/11/12 09:10:31;;;;;;;6.57;2.70;;;13.20;95.00;;;;;;5072782;28;20024;-74
2022/11/12 09:12:57;;;;;;;4.63;2.30;;;13.30;94.60;;;;;;5090818;28;20040;-75
2022/11/12 09:15:24;;;;;;;4.00;2.50;;;13.40;94.60;;;;;;5091254;28;20092;-77
2022/11/12 09:18:01;;;;;;;5.35;2.53;;;13.50;94.70;;;;;;5091401;28;20434;-77
2022/11/12 09:20:28;;;;;;;8.02;2.42;;;13.60;94.50;;;;;;5093027;28;20064;-76
2022/11/12 09:22:59;;;;;;;8.10;2.73;;;13.70;94.40;;;;;;5091937;28;20024;-75
2022/11/12 09:25:24;;;;;;;7.35;2.42;;;13.80;94.00;;;;;;5073889;28;20029;-74
2022/11/12 09:27:50;;;;;;;5.35;2.67;;;13.80;94.10;;;;;;5091481;28;20028;-74
2022/11/12 09:30:16;;;;;;;4.70;2.75;;;13.90;94.00;;;;;;5095606;28;20016;-74
2022/11/12 09:32:41;;;;;;;3.42;2.10;;;14.00;93.90;;;;;;5073939;28;20051;-74
2022/11/12 09:35:07;;;;;;;5.05;2.50;;;14.10;94.00;;;;;;5092220;28;20028;-76
2022/11/12 09:37:35;;;;;;;5.22;2.42;;;14.10;93.90;;;;;;5094068;28;20457;-75
2022/11/12 09:40:01;;;;;;;5.20;2.28;;;14.10;93.70;;;;;;5095420;28;20036;-74
2022/11/12 09:42:27;;;;;;;6.85;2.45;;;14.20;93.70;;;;;;5076556;28;20048;-72
2022/11/12 09:45:25;;;;;;;5.80;2.38;;;14.30;93.60;;;;;;5094913;28;20032;-71
2022/11/12 09:48:05;;;;;;;4.05;2.55;;;14.30;93.60;;;;;;5094028;28;20408;-72
2022/11/12 09:50:39;;;;;;;3.75;2.22;;;14.30;93.40;;;;;;5094969;28;20130;-72
2022/11/12 09:53:50;;;;;;;4.72;2.17;;;14.30;93.50;;;;;;5094361;28;20116;-72
2022/11/12 09:56:19;;;;;;;4.35;2.53;;;14.30;93.40;;;;;;5058684;28;20032;-71
2022/11/12 09:58:45;;;;;;;6.10;2.50;;;14.30;93.30;;;;;;5095477;28;20412;-72
2022/11/12 10:01:31;;;;;;;5.55;3.35;;;14.40;93.40;;;;;;5096018;28;20461;-73
2022/11/12 10:04:26;;;;;;;6.03;2.90;;;14.50;93.40;;;;;;5094450;28;20043;-73
2022/11/12 10:07:02;;;;;;;4.30;2.28;;;14.50;93.20;;;;;;5094164;28;20036;-70
2022/11/12 10:09:55;;;;;;;4.85;2.60;;;14.60;93.40;;;;;;5093882;28;20036;-70
2022/11/12 10:12:39;;;;;;;4.93;2.83;;;14.70;93.20;;;;;;5093725;28;20051;-72
2022/11/12 10:19:03;;;;;;;7.47;2.47;;;14.90;92.90;;;;;;5093918;28;20129;-72
2022/11/12 10:21:34;;;;;;;5.28;2.33;;;15.00;92.90;;;;;;5079240;28;20112;-71
2022/11/12 10:24:02;;;;;;;5.70;1.83;;;15.00;92.70;;;;;;5093662;28;20016;-71
2022/11/12 10:26:31;;;;;;;6.07;2.10;;;15.10;92.30;;;;;;5076244;28;20361;-71
2022/11/12 10:29:21;;;;;;;7.72;2.33;;;15.30;92.50;;;;;;5093573;28;20267;-73
2022/11/12 10:31:47;;;;;;;6.97;1.92;;;15.30;92.40;;;;;;5075770;28;20357;-74
2022/11/12 10:34:13;;;;;;;3.92;2.10;;;15.50;92.40;;;;;;5093896;28;20469;-73
2022/11/12 10:36:43;;;;;;;4.35;2.15;;;15.50;92.10;;;;;;5093974;28;20028;-72
2022/11/12 10:39:09;;;;;;;4.38;1.95;;;15.60;91.90;;;;;;5093478;28;20031;-74
2022/11/12 10:41:35;;;;;;;6.57;2.30;;;15.70;92.10;;;;;;5093920;28;20036;-77
2022/11/12 10:44:03;;;;;;;7.05;2.08;;;15.70;91.90;;;;;;5075331;28;20058;-74
2022/11/12 10:46:35;;;;;;;4.40;2.20;;;15.60;91.70;;;;;;5075603;28;20579;-72
2022/11/12 10:49:04;;;;;;;4.72;1.80;;;15.70;91.80;;;;;;5092364;28;20047;-73
2022/11/12 10:51:32;;;;;;;8.05;2.20;;;15.70;91.70;;;;;;5093175;28;20458;-75
2022/11/12 10:53:58;;;;;;;5.55;2.97;;;15.80;91.70;;;;;;5094191;28;20030;-76
2022/11/12 10:56:30;;;;;;;4.55;2.35;;;15.90;91.70;;;;;;5093415;28;20043;-74
2022/11/12 10:59:31;;;;;;;4.40;2.20;;;16.10;91.50;;;;;;5075245;28;20028;-75
2022/11/12 11:01:59;;;;;;;6.38;2.38;;;16.30;91.40;;;;;;5043132;28;20028;-74
2022/11/12 11:04:34;;;;;;;8.18;2.38;;;16.40;91.40;;;;;;5093200;28;20109;-74
2022/11/12 11:07:02;;;;;;;3.28;2.00;;;16.60;91.30;;;;;;5093312;28;20028;-74
2022/11/12 11:09:27;;;;;;;;;;;16.50;90.60;;;;;;5075332;28;20033;-74
2022/11/12 11:11:53;;;;;;;4.00;2.15;;;16.70;91.10;;;;;;5075594;28;19918;-75
2022/11/12 11:14:23;;;;;;;3.80;2.40;;;16.70;90.80;;;;;;5074773;28;20032;-75
2022/11/12 11:16:55;;;;;;;4.78;2.03;;;16.70;90.80;;;;;;5092677;28;20041;-75
2022/11/12 11:19:21;;;;;;;3.97;2.10;;;16.70;90.60;;;;;;5074788;28;20534;-74
2022/11/12 11:21:50;;;;;;;3.75;1.83;;;16.50;90.20;;;;;;5074914;28;20044;-74
2022/11/12 11:24:21;;;;;;;2.90;1.98;;;16.50;90.50;;;;;;5093106;28;20327;-75
2022/11/12 11:27:08;;;;;;;2.65;1.70;;;16.60;90.60;;;;;;5093483;28;20036;-75
2022/11/12 11:30:09;;;;;;;5.15;2.15;;;16.60;90.30;;;;;;5092860;28;20097;-75
2022/11/12 11:32:52;;;;;;;4.25;2.42;;;16.50;90.20;;;;;;5092806;28;20047;-74
2022/11/12 11:35:30;;;;;;;5.82;2.20;;;16.50;90.20;;;;;;5092460;28;20036;-75
2022/11/12 11:37:59;;;;;;;4.18;2.28;;;16.50;90.20;;;;;;5092657;28;20024;-74
2022/11/12 11:40:29;;;;;;;9.38;2.83;;;16.60;90.50;;;;;;5092219;28;20027;-75
2022/11/12 11:43:14;;;;;;;5.22;2.50;;;16.60;90.30;;;;;;5070871;28;20048;-74
2022/11/12 11:46:00;;;;;;;5.30;2.75;;;16.50;90.30;;;;;;5071973;28;20025;-74
2022/11/12 11:48:45;;;;;;;4.47;2.60;;;16.50;90.30;;;;;;5071740;28;20145;-75
2022/11/12 11:51:32;;;;;;;7.28;2.45;;;16.50;90.60;;;;;;5072278;28;20182;-74
2022/11/12 11:54:25;;;;;;;5.50;2.60;;;16.60;90.50;;;;;;5071394;28;20032;-73
2022/11/12 11:56:56;;;;;;;7.72;2.95;;;16.60;90.30;;;;;;5070864;28;20509;-75
2022/11/12 11:59:30;;;;;;;6.70;3.45;;;16.70;90.50;;;;;;5071663;28;20041;-73
2022/11/12 12:02:02;;;;;;;8.88;3.03;;;16.70;90.40;;;;;;5071780;28;20021;-76
2022/11/12 12:04:46;;;;;;;5.15;2.78;;;16.70;90.40;;;;;;5070652;28;20036;-73
2022/11/12 12:07:30;;;;;;;6.93;2.83;;;16.60;90.30;;;;;;5071616;28;20115;-74
2022/11/12 12:10:02;;;;;;;5.28;2.72;;;16.60;90.60;;;;;;5071477;28;20385;-74
2022/11/12 12:12:34;;;;;;;5.25;2.80;;;16.50;90.70;;;;;;5070354;28;20119;-74
2022/11/12 12:15:36;;;;;;;8.52;3.20;;;16.60;90.70;;;;;;5071539;28;20040;-74
2022/11/12 12:18:20;;;;;;;5.85;2.80;;;16.50;90.50;;;;;;5051841;28;20037;-74
2022/11/12 12:21:24;;;;;;;6.18;2.85;;;16.60;90.50;;;;;;5071571;28;20074;-74
2022/11/12 12:23:59;;;;;;;7.45;3.00;;;16.60;90.60;;;;;;5009328;28;20046;-74
2022/11/12 12:26:44;;;;;;;8.55;2.80;;;16.60;90.70;;;;;;5064143;28;20458;-72
2022/11/12 12:29:32;;;;;;;6.22;2.53;;;16.60;90.70;;;;;;5071208;28;20032;-72
2022/11/12 12:32:15;;;;;;;5.13;2.90;;;16.50;90.60;;;;;;5070907;28;20028;-73
2022/11/12 12:34:45;;;;;;;5.43;2.45;;;16.50;90.70;;;;;;5071015;28;20120;-73
2022/11/12 12:37:36;;;;;;;6.10;2.63;;;16.50;90.70;;;;;;5070785;28;20032;-73
2022/11/12 12:40:31;;;;;;;6.28;2.50;;;16.50;90.60;;;;;;5070687;28;20093;-74
2022/11/12 12:43:12;;;;;;;7.78;3.28;;;16.50;90.70;;;;;;5084706;28;20040;-74
2022/11/12 12:45:43;;;;;;;4.68;2.42;;;16.50;90.60;;;;;;5090887;28;20432;-73
2022/11/12 12:48:18;;;;;;;8.65;4.15;;;16.50;90.80;;;;;;5091052;28;20055;-73
2022/11/12 12:50:44;;;;;;;6.47;2.40;;;16.50;90.60;;;;;;5073596;28;20059;-73
2022/11/12 12:53:39;;;;;;;8.18;2.03;;;16.60;90.60;;;;;;5090920;28;20103;-74
2022/11/12 12:56:31;;;;;;;5.53;2.20;;;16.60;90.60;;;;;;5091204;28;20115;-74
2022/11/12 12:59:02;;;;;;;3.90;2.25;;;16.50;90.70;;;;;;5079721;28;20032;-74
2022/11/12 13:01:32;;;;;;;4.50;2.53;;;16.50;90.70;;;;;;5073130;28;20390;-75
2022/11/12 13:04:08;;;;;;;4.50;2.78;;;16.50;90.90;;;;;;5091055;28;20039;-73
2022/11/12 13:06:45;;;;;;;5.95;2.60;;;16.50;91.00;;;;;;5091016;28;20032;-74
2022/11/12 13:09:13;;;;;;;6.55;2.78;;;16.40;91.00;;;;;;5090865;28;20020;-75
2022/11/12 13:14:49;;;;;;;6.13;2.22;;;16.40;91.10;;;;;;5091513;28;20038;-73
2022/11/12 13:17:42;;;;;;;5.95;2.70;;;16.40;91.30;;;;;;5091429;28;20059;-74
2022/11/12 13:20:08;;;;;;;6.78;2.40;;;16.30;91.30;;;;;;5073693;28;20091;-74
2022/11/12 13:22:49;;;;;;;5.45;2.35;;;16.20;91.40;;;;;;5073816;28;20396;-74
2022/11/12 13:25:15;;;;;;;2.78;2.05;;;16.20;91.60;;;;;;5073244;28;20438;-73
2022/11/12 13:27:44;;;;;;;7.82;4.00;;;16.20;91.70;;;;;;5073475;28;20032;-73
2022/11/12 13:30:13;;;;;;;3.83;2.38;;;16.20;91.70;;;;;;5091324;28;20372;-74
2022/11/12 13:32:50;;;;;;;7.38;3.05;;;16.20;91.80;;;;;;5091372;28;20020;-73
2022/11/12 13:35:16;;;;;;;5.28;2.70;;;16.20;91.90;;;;;;5091039;28;20024;-74
2022/11/12 13:37:51;;;;;;;10.05;3.17;;;16.10;92.00;;;;;;5090953;28;20039;-74